aviador You're here:

SCRG Decoded Metar

RANCAGUA in CHILE
Report Time2018-02-20 12:00:00
UTC Time2018-02-20 13:49:52
Flight Rules Old
WindCalm
Visibility9999 m
Phenomena:N/A
Clouds:Broken 130 Hf
Expected CloudBase > 1,600 ft AGL from Temp-Dew spread
Ceiling13,000 ft
Temp15°C (ISA +3)
Dew Point11°C (77% RH)
QNH1017 hPa
Density Alt1,834 ft
Elevation1,447 ft
Report Wrong Elevation
Raw Report
METAR SCRG 201200Z 00000KT 9999 BKN130 15/11 Q1017=

Extra information for SCRG:More info

Metar Taf Metar & Taf Last 4 Metars F.Rules Stats Wind Profile Meteogram Temp Stats Airport Information Weather charts Add Link Nearby VenuesMetar ALERT Operation Metar Decoded Social comments